Archival Weather

Fukuoka

Fukuoka, Japan (RJFF)

Report from: Tuesday, August 16, 2022 11:16 AM JST
Current time: Sunday, November 27, 2022 5:26 PM JST

Current weather
Weather history
Weather forecast

Present weatherThunderstorm, VCSH
Temperature30.0°C (86.0°F)
Heat index37.5°C (99.5°F)
Dew point26.0°C (78.8°F)
Winds 12 kts (6.2 m/s, 13.8 mph) South-Southeast (160°)
Visibility6.2 mi. (10 km)
Clouds Few clouds 1,000 ft. (305 m)
Few clouds with cumulonimbus 3,000 ft. (914 m)
Scattered clouds 3,500 ft. (1,067 m)
Ceiling: Broken clouds 4,500 ft. (1,372 m)
Altimeter29.74 in.Hg (1007 mB)
Precip. events C 11:01 AM
Relative humidity79 %
Density altitude2,377 ft. (724 m)
Remarks Special weather observation
Thunderstorm southeast moving northeast
Flight conditions Visual Meteorological Conditions
Raw dataSPJP31 KWBC 160224 SPECI RJFF 160216Z 16012KT 9999 TS VCSH FEW010 FEW030CB SCT035 BKN045 30/26 Q1007 RMK 1CU010 1CB030 4CU035 6CU045 A2974 FBL TS 15KM SE MOV NE
An error has occurred. This application may no longer respond until reloaded. Reload 🗙